SBOSBO GRU / SBGR
Speedbird OnlineSpeedbird Online GRU / SBGR

Guarulhos - Governador André Franco Montoro International Airport
21:49 26°C

Location Sao Paulo, Brazil
Latitude: -23.435556411743164
Longitude: -46.47305679321289
Local Time 21:49 on 27 Feb 2024
UTC -3 hours (America/Sao_Paulo)
Currency £1 equals BRL 6.32
METAR SBGR 280000Z 00000KT CAVOK 26/23 Q1015
TAF TAF SBGR 272140Z 2800/2906 36006KT 8000 BKN016 TN21/2809Z TX32/2818Z BECMG 2801/2803 06006KT BECMG 2813/2815 34006KT FEW025 BECMG 2816/2818 30006KT BKN022 TEMPO 2818/2821 TS BKN020 FEW040CB BECMG 2822/2824 12005KT BKN016 RMK PGM
Weather As Of 27 Feb 2024 21:49
Description Clear sky
Wind 7 km/h from West (260°)
Cloud Cover 0%
Precipitation Rain: none, Snow: none
Sunrise 06:00
Sunset 18:37
NOTAM 21 active NOTAM
Rotations During the last 90 days there were
78 flights from LHR
79 flights to LHR
Lounges American Airlines Admirals Club, Terminal 3
LATAM VIP Lounge , Terminal 3
Web Airport Website | Wikipedia
Codes IATA: GRU
ICAO: SBGR
Altitude 750 Meter / 2459 Feet
Distance 9,490 KM / 5,897 Miles
from London.
Runways
RunwayLength (m)Surface
09L3700Asphalt
09R3000Asphalt
27L3000Asphalt
27R3700Asphalt
Radio
TypeDescriptionFrequency
APPSAO PAULO APP119.8
ATISATIS127.75
CLDCLNC DEL121
GNDGND121.7
ILS:RWY 27L111.1
OPSSAO PAULO OPS122.5
TWRTWR118.4
Live ATC



Support Speedbird Online

© 2017-2024 Speedbird Online